createdAt,value
2019-06-26T00:07:54.872Z,10.90
2019-06-26T00:10:25.460Z,10.90
2019-06-26T00:12:57.199Z,10.87
2019-06-26T00:15:27.878Z,10.80
2019-06-26T00:17:59.257Z,10.57
2019-06-26T00:20:29.943Z,11.13
2019-06-26T00:23:00.359Z,11.00
2019-06-26T00:25:31.784Z,10.93
2019-06-26T00:28:02.977Z,10.87
2019-06-26T00:30:33.661Z,10.53
2019-06-26T00:33:09.157Z,10.90
2019-06-26T00:35:41.089Z,11.33
2019-06-26T00:38:12.196Z,10.60
2019-06-26T00:40:42.791Z,10.20
2019-06-26T00:43:13.432Z,10.27
2019-06-26T00:45:45.988Z,10.27
2019-06-26T00:48:16.660Z,10.67
2019-06-26T00:50:48.133Z,10.20
2019-06-26T00:53:20.331Z,9.70
2019-06-26T00:55:51.001Z,11.23
2019-06-26T00:58:21.541Z,11.43
2019-06-26T01:00:53.308Z,10.27
2019-06-26T01:03:23.814Z,10.07
2019-06-26T01:05:54.356Z,10.43
2019-06-26T01:08:24.845Z,10.33
2019-06-26T01:10:55.516Z,10.47
2019-06-26T01:13:25.915Z,10.57
2019-06-26T01:15:56.721Z,11.50
2019-06-26T01:18:34.830Z,11.13
2019-06-26T01:21:05.413Z,11.27
2019-06-26T01:23:35.920Z,11.17
2019-06-26T01:26:06.573Z,10.60
2019-06-26T01:28:37.138Z,11.90
2019-06-26T01:31:07.723Z,10.80
2019-06-26T01:33:38.297Z,10.70
2019-06-26T01:36:08.870Z,10.57
2019-06-26T01:38:39.448Z,10.60
2019-06-26T01:41:10.040Z,10.77
2019-06-26T01:43:40.650Z,10.47
2019-06-26T01:46:11.169Z,11.53
2019-06-26T01:48:45.213Z,11.43
2019-06-26T01:51:15.766Z,11.00
2019-06-26T01:53:46.342Z,11.13
2019-06-26T01:56:16.920Z,10.37
2019-06-26T01:58:47.379Z,10.47
2019-06-26T02:01:17.905Z,10.13
2019-06-26T02:03:48.484Z,11.10
2019-06-26T02:06:19.123Z,11.23
2019-06-26T02:08:49.859Z,11.03
2019-06-26T02:11:20.571Z,11.40
2019-06-26T02:13:51.279Z,11.57
2019-06-26T02:16:21.899Z,10.27
2019-06-26T02:18:54.946Z,10.93
2019-06-26T02:21:25.473Z,11.03
2019-06-26T02:23:55.883Z,10.43
2019-06-26T02:26:26.548Z,11.27
2019-06-26T02:28:57.084Z,10.57
2019-06-26T02:31:27.735Z,10.90
2019-06-26T02:33:58.205Z,10.93
2019-06-26T02:36:28.934Z,10.80
2019-06-26T02:38:59.491Z,10.93
2019-06-26T02:41:30.116Z,11.17
2019-06-26T02:44:00.958Z,11.00
2019-06-26T02:46:31.552Z,10.77
2019-06-26T02:49:02.125Z,11.20
2019-06-26T02:51:33.519Z,11.33
2019-06-26T02:54:04.458Z,10.67
2019-06-26T02:56:37.207Z,11.40
2019-06-26T02:59:13.597Z,11.33
2019-06-26T03:01:44.886Z,11.10
2019-06-26T03:04:15.422Z,10.10
2019-06-26T03:06:46.035Z,11.07
2019-06-26T03:09:16.602Z,10.87
2019-06-26T03:11:47.230Z,11.37
2019-06-26T03:14:17.811Z,11.00
2019-06-26T03:16:48.405Z,11.07
2019-06-26T03:19:19.928Z,11.70
2019-06-26T03:21:50.412Z,11.23
2019-06-26T03:24:20.988Z,11.07
2019-06-26T03:26:51.660Z,11.40
2019-06-26T03:29:22.117Z,11.23
2019-06-26T03:31:52.769Z,11.17
2019-06-26T03:34:23.327Z,11.67
2019-06-26T03:36:53.937Z,11.63
2019-06-26T03:39:24.434Z,11.83
2019-06-26T03:41:55.126Z,11.33
2019-06-26T03:44:31.670Z,11.10
2019-06-26T03:47:02.910Z,10.23
2019-06-26T03:49:33.417Z,10.33
2019-06-26T03:52:04.206Z,10.00
2019-06-26T03:54:34.751Z,10.13
2019-06-26T03:57:05.369Z,9.40
2019-06-26T03:59:36.015Z,10.13
2019-06-26T04:02:06.649Z,9.63
2019-06-26T04:04:37.115Z,10.57
2019-06-26T04:07:08.386Z,10.10
2019-06-26T04:09:38.943Z,9.93
2019-06-26T04:12:09.549Z,10.93
2019-06-26T04:14:40.065Z,10.87
2019-06-26T04:17:10.465Z,10.73
2019-06-26T04:19:42.954Z,11.20
2019-06-26T04:22:13.632Z,10.73
2019-06-26T04:24:44.078Z,10.10
2019-06-26T04:27:14.677Z,10.30
2019-06-26T04:29:45.448Z,10.90
2019-06-26T04:32:16.003Z,10.73
2019-06-26T04:34:46.667Z,10.67
2019-06-26T04:37:17.212Z,10.70
2019-06-26T04:39:47.962Z,10.67
2019-06-26T04:42:19.373Z,9.83
2019-06-26T04:44:49.981Z,10.30
2019-06-26T04:47:20.550Z,10.43
2019-06-26T04:49:50.973Z,9.97
2019-06-26T04:52:21.534Z,9.07
2019-06-26T04:54:52.013Z,9.57
2019-06-26T04:57:22.495Z,8.50
2019-06-26T04:59:53.147Z,8.77
2019-06-26T05:02:23.664Z,8.13
2019-06-26T05:04:54.149Z,8.13
2019-06-26T05:07:24.754Z,8.40
2019-06-26T05:09:55.649Z,8.70
2019-06-26T05:12:26.251Z,8.87
2019-06-26T05:14:56.842Z,9.47
2019-06-26T05:17:27.557Z,9.27
2019-06-26T05:19:59.117Z,8.50
2019-06-26T05:22:29.978Z,8.53
2019-06-26T05:25:00.760Z,9.17
2019-06-26T05:27:31.396Z,8.30
2019-06-26T05:30:04.550Z,7.77
2019-06-26T05:32:35.155Z,8.67
2019-06-26T05:35:08.931Z,9.00
2019-06-26T05:37:39.636Z,8.50
2019-06-26T05:40:14.950Z,8.23
2019-06-26T05:42:45.518Z,8.03
2019-06-26T05:45:17.848Z,8.63
2019-06-26T05:47:48.581Z,8.53
2019-06-26T05:50:20.267Z,8.20
2019-06-26T05:52:50.825Z,8.30
2019-06-26T05:55:21.709Z,9.03
2019-06-26T05:57:52.437Z,8.20
2019-06-26T06:00:23.379Z,8.13
2019-06-26T06:02:54.220Z,8.43
2019-06-26T06:05:26.624Z,7.40
2019-06-26T06:07:57.533Z,8.47
2019-06-26T06:10:29.636Z,8.50
2019-06-26T06:13:02.678Z,8.50
2019-06-26T06:15:36.167Z,8.27
2019-06-26T06:18:06.824Z,8.47
2019-06-26T06:20:39.953Z,8.20
2019-06-26T06:23:10.602Z,8.67
2019-06-26T06:25:41.126Z,7.57
2019-06-26T06:28:11.689Z,8.77
2019-06-26T06:30:42.329Z,8.63
2019-06-26T06:33:13.974Z,8.40
2019-06-26T06:35:51.262Z,8.57
2019-06-26T06:38:31.435Z,8.33
2019-06-26T06:41:02.682Z,8.27
2019-06-26T06:43:33.368Z,8.57
2019-06-26T06:46:04.369Z,7.90
2019-06-26T06:48:35.513Z,7.93
2019-06-26T06:51:06.561Z,8.07
2019-06-26T06:53:37.109Z,7.90
2019-06-26T06:56:07.672Z,8.30
2019-06-26T06:58:38.894Z,8.13
2019-06-26T07:01:09.503Z,7.90
2019-06-26T07:03:40.112Z,7.67
2019-06-26T07:06:10.633Z,8.20
2019-06-26T07:08:41.215Z,8.00
2019-06-26T07:11:11.839Z,8.23
2019-06-26T07:13:42.512Z,8.07
2019-06-26T07:16:13.128Z,8.20
2019-06-26T07:18:43.781Z,8.23
2019-06-26T07:21:15.202Z,8.10
2019-06-26T07:23:48.787Z,8.43
2019-06-26T07:26:19.482Z,8.95
2019-06-26T07:28:50.073Z,7.95
2019-06-26T07:31:20.692Z,7.60
2019-06-26T07:33:55.519Z,7.83
2019-06-26T07:36:26.201Z,8.38
2019-06-26T07:38:58.208Z,7.90
2019-06-26T07:41:28.727Z,8.28
2019-06-26T07:43:59.393Z,8.15
2019-06-26T07:46:29.979Z,8.08
2019-06-26T07:49:00.611Z,8.25
2019-06-26T07:51:31.809Z,8.40
2019-06-26T07:54:02.375Z,7.83
2019-06-26T07:56:33.906Z,7.65
2019-06-26T07:59:04.942Z,7.85
2019-06-26T08:01:35.678Z,7.65
2019-06-26T08:04:06.262Z,8.15
2019-06-26T08:06:37.006Z,7.15
2019-06-26T08:09:08.161Z,7.85
2019-06-26T08:11:38.852Z,7.80
2019-06-26T08:14:09.468Z,7.60
2019-06-26T08:19:40.568Z,6.90
2019-06-26T08:22:12.107Z,7.47
2019-06-26T08:24:43.973Z,7.40
2019-06-26T08:27:15.295Z,8.55
2019-06-26T08:29:46.421Z,7.42
2019-06-26T08:32:17.570Z,6.90
2019-06-26T08:34:48.198Z,7.33
2019-06-26T08:37:19.045Z,7.33
2019-06-26T08:39:49.630Z,7.78
2019-06-26T08:42:22.181Z,8.08
2019-06-26T08:44:52.791Z,6.90
2019-06-26T08:47:23.248Z,7.10
2019-06-26T08:49:53.809Z,6.70
2019-06-26T08:52:24.519Z,6.10
2019-06-26T08:54:55.704Z,6.47
2019-06-26T08:57:26.252Z,6.30
2019-06-26T08:59:56.911Z,6.67
2019-06-26T09:02:27.401Z,5.83
2019-06-26T09:04:58.319Z,6.00
2019-06-26T09:07:28.811Z,6.83
2019-06-26T09:09:59.476Z,6.73
2019-06-26T09:12:30.012Z,6.00
2019-06-26T09:15:01.121Z,6.10
2019-06-26T09:17:31.979Z,6.30
2019-06-26T09:20:03.279Z,6.40
2019-06-26T09:22:35.077Z,6.80
2019-06-26T09:25:21.127Z,6.57
2019-06-26T09:27:40.271Z,6.20
2019-06-26T09:30:32.439Z,6.30
2019-06-26T09:33:03.138Z,6.90
2019-06-26T09:35:33.691Z,6.97
2019-06-26T09:38:04.283Z,6.50
2019-06-26T09:40:34.954Z,7.17
2019-06-26T09:43:05.585Z,6.80
2019-06-26T09:45:36.303Z,6.33
2019-06-26T09:48:06.828Z,6.47
2019-06-26T09:50:37.379Z,6.30
2019-06-26T09:53:08.904Z,5.93
2019-06-26T09:55:39.705Z,6.33
2019-06-26T09:58:13.148Z,6.37
2019-06-26T10:00:43.609Z,6.40
2019-06-26T10:03:14.204Z,6.47
2019-06-26T10:05:45.960Z,6.57
2019-06-26T10:08:17.076Z,6.53
2019-06-26T10:10:47.846Z,6.70
2019-06-26T10:13:19.017Z,6.13
2019-06-26T10:15:49.663Z,6.47
2019-06-26T10:18:20.252Z,6.40
2019-06-26T10:20:50.884Z,6.20
2019-06-26T10:23:22.816Z,5.97
2019-06-26T10:25:54.584Z,6.20
2019-06-26T10:31:03.910Z,5.97
2019-06-26T10:33:34.536Z,6.23
2019-06-26T10:36:05.610Z,6.07
2019-06-26T10:38:36.219Z,6.37
2019-06-26T10:41:06.813Z,6.60
2019-06-26T10:43:37.419Z,6.03
2019-06-26T10:46:08.163Z,6.43
2019-06-26T10:48:38.756Z,6.53
2019-06-26T10:51:09.416Z,6.30
2019-06-26T10:53:39.996Z,6.17
2019-06-26T10:56:10.596Z,6.60
2019-06-26T10:58:41.177Z,6.50
2019-06-26T11:01:11.840Z,5.93
2019-06-26T11:03:42.990Z,6.03
2019-06-26T11:06:13.770Z,6.17
2019-06-26T11:08:45.631Z,6.10
2019-06-26T11:11:17.180Z,6.40
2019-06-26T11:13:47.755Z,6.13
2019-06-26T11:16:18.479Z,6.23
2019-06-26T11:18:48.975Z,7.10
2019-06-26T11:21:19.549Z,6.43
2019-06-26T11:23:50.834Z,6.53
2019-06-26T11:26:22.095Z,6.70
2019-06-26T11:28:52.637Z,6.90
2019-06-26T11:31:24.370Z,6.77
2019-06-26T11:34:01.002Z,6.60
2019-06-26T11:36:31.763Z,6.30
2019-06-26T11:39:02.407Z,6.57
2019-06-26T11:41:33.577Z,6.40
2019-06-26T11:44:04.183Z,6.70
2019-06-26T11:46:37.037Z,6.73
2019-06-26T11:49:07.298Z,6.97
2019-06-26T11:51:37.925Z,6.20
2019-06-26T11:54:08.452Z,6.73
2019-06-26T11:56:39.034Z,6.40
2019-06-26T11:59:09.654Z,6.30
2019-06-26T12:01:41.040Z,6.03
2019-06-26T12:04:11.572Z,6.23
2019-06-26T12:06:45.991Z,7.33
2019-06-26T12:09:15.289Z,7.20
2019-06-26T12:11:45.844Z,6.73
2019-06-26T12:14:16.449Z,7.40
2019-06-26T12:16:46.943Z,6.43
2019-06-26T12:19:19.873Z,6.77
2019-06-26T12:21:49.729Z,7.27
2019-06-26T12:24:21.128Z,7.47
2019-06-26T12:26:51.798Z,7.47
2019-06-26T12:29:22.441Z,7.03
2019-06-26T12:34:32.579Z,6.57
2019-06-26T12:37:03.568Z,7.50
2019-06-26T12:39:34.212Z,7.37
2019-06-26T12:42:06.518Z,6.87
2019-06-26T12:44:37.631Z,7.33
2019-06-26T12:47:09.135Z,6.90
2019-06-26T12:49:39.748Z,6.60
2019-06-26T12:52:11.185Z,7.17
2019-06-26T12:54:41.637Z,7.50
2019-06-26T12:57:12.204Z,7.10
2019-06-26T12:59:56.432Z,7.27
2019-06-26T13:02:15.188Z,7.00
2019-06-26T13:04:45.792Z,7.47
2019-06-26T13:07:16.378Z,7.27
2019-06-26T13:09:47.130Z,6.97
2019-06-26T13:12:17.718Z,7.60
2019-06-26T13:14:48.311Z,7.77
2019-06-26T13:17:22.446Z,7.07
2019-06-26T13:19:52.961Z,8.07
2019-06-26T13:22:23.594Z,6.93
2019-06-26T13:24:55.730Z,7.67
2019-06-26T13:27:26.315Z,6.90
2019-06-26T13:29:56.920Z,7.23
2019-06-26T13:32:27.386Z,6.93
2019-06-26T13:34:58.376Z,7.47
2019-06-26T13:37:29.012Z,7.43
2019-06-26T13:40:00.195Z,7.80
2019-06-26T13:42:30.665Z,6.77
2019-06-26T13:45:01.196Z,6.43
2019-06-26T13:47:33.735Z,7.27
2019-06-26T13:50:07.286Z,6.90
2019-06-26T13:52:37.835Z,7.57
2019-06-26T13:55:08.541Z,7.07
2019-06-26T13:57:39.115Z,6.70
2019-06-26T14:00:11.355Z,6.87
2019-06-26T14:02:42.055Z,6.90
2019-06-26T14:05:13.161Z,6.80
2019-06-26T14:07:43.852Z,7.17
2019-06-26T14:10:14.672Z,9.13
2019-06-26T14:12:45.840Z,6.50
2019-06-26T14:15:17.116Z,7.30
2019-06-26T14:17:47.692Z,6.87
2019-06-26T14:20:20.969Z,6.90
2019-06-26T14:22:51.626Z,7.23
2019-06-26T14:25:23.057Z,6.83
2019-06-26T14:27:53.661Z,6.30
2019-06-26T14:30:27.643Z,6.90
2019-06-26T14:32:56.386Z,6.67
2019-06-26T14:50:58.705Z,6.67
2019-06-26T14:53:30.012Z,7.40
2019-06-26T14:56:01.238Z,7.90
2019-06-26T14:58:31.741Z,6.67
2019-06-26T15:01:06.124Z,7.20
2019-06-26T15:03:36.669Z,7.10
2019-06-26T15:06:16.499Z,6.60
2019-06-26T15:08:40.141Z,7.50
2019-06-26T15:11:10.568Z,7.23
2019-06-26T15:13:41.028Z,6.53
2019-06-26T15:16:11.602Z,7.10
2019-06-26T15:18:42.069Z,7.47
2019-06-26T15:21:12.559Z,7.23
2019-06-26T15:23:49.332Z,7.43
2019-06-26T15:26:21.414Z,6.60
2019-06-26T15:28:51.829Z,7.10
2019-06-26T15:31:22.412Z,6.63
2019-06-26T15:33:53.252Z,6.50
2019-06-26T15:36:23.715Z,7.50
2019-06-26T15:38:54.125Z,6.70
2019-06-26T15:41:24.526Z,7.33
2019-06-26T15:43:55.039Z,7.50
2019-06-26T15:46:25.699Z,7.57
2019-06-26T15:48:56.804Z,6.70
2019-06-26T15:51:27.332Z,6.50
2019-06-26T15:53:59.976Z,6.27
2019-06-26T15:56:29.934Z,7.03
2019-06-26T15:59:00.454Z,6.07
2019-06-26T16:01:30.865Z,6.33
2019-06-26T16:04:01.399Z,6.87
2019-06-26T16:06:32.045Z,6.73
2019-06-26T16:09:02.458Z,7.60
2019-06-26T16:11:32.985Z,6.77
2019-06-26T16:14:04.548Z,7.40
2019-06-26T16:16:36.598Z,6.60
2019-06-26T16:19:15.953Z,6.77
2019-06-26T16:21:46.529Z,6.53
2019-06-26T16:24:17.087Z,6.97
2019-06-26T16:26:48.758Z,7.17
2019-06-26T16:29:19.977Z,7.03
2019-06-26T16:31:50.445Z,6.77
2019-06-26T16:34:20.853Z,7.30
2019-06-26T16:36:51.524Z,7.17
2019-06-26T16:39:23.666Z,7.63
2019-06-26T16:41:54.171Z,7.87
2019-06-26T16:44:24.569Z,7.53
2019-06-26T16:46:54.961Z,6.87
2019-06-26T16:49:25.471Z,7.70
2019-06-26T16:51:56.025Z,8.10
2019-06-26T16:57:06.707Z,7.93
2019-06-26T16:59:37.289Z,7.73
2019-06-26T17:02:08.432Z,7.77
2019-06-26T17:04:38.888Z,7.27
2019-06-26T17:07:09.352Z,7.40
2019-06-26T17:09:40.033Z,8.23
2019-06-26T17:12:10.559Z,8.17
2019-06-26T17:14:40.969Z,7.50
2019-06-26T17:17:11.402Z,8.60
2019-06-26T17:19:41.890Z,7.90
2019-06-26T17:22:18.111Z,8.47
2019-06-26T17:24:47.635Z,8.37
2019-06-26T17:27:18.967Z,8.30
2019-06-26T17:29:49.388Z,7.90
2019-06-26T17:32:19.799Z,8.43
2019-06-26T17:34:50.271Z,7.77
2019-06-26T17:37:20.887Z,8.57
2019-06-26T17:39:51.300Z,8.17
2019-06-26T17:42:23.143Z,8.30
2019-06-26T17:44:53.626Z,8.43
2019-06-26T17:47:24.008Z,7.80
2019-06-26T17:49:54.436Z,8.63
2019-06-26T17:52:24.816Z,8.00
2019-06-26T17:54:55.221Z,8.10
2019-06-26T17:57:25.749Z,8.50
2019-06-26T17:59:56.419Z,8.57
2019-06-26T18:02:26.821Z,8.17
2019-06-26T18:04:57.226Z,8.43
2019-06-26T18:07:28.573Z,8.00
2019-06-26T18:09:59.048Z,9.00
2019-06-26T18:12:29.622Z,8.67
2019-06-26T18:15:00.085Z,7.90
2019-06-26T18:17:30.507Z,9.10
2019-06-26T18:20:00.911Z,8.80
2019-06-26T18:22:31.408Z,7.97
2019-06-26T18:25:01.820Z,8.83
2019-06-26T18:27:33.075Z,8.50
2019-06-26T18:30:04.941Z,8.93
2019-06-26T18:32:37.184Z,8.87
2019-06-26T18:35:09.319Z,9.27
2019-06-26T18:37:39.713Z,8.80
2019-06-26T18:40:11.432Z,8.27
2019-06-26T18:42:41.916Z,8.43
2019-06-26T18:45:12.723Z,9.07
2019-06-26T18:47:43.753Z,10.13
2019-06-26T18:50:14.896Z,8.93
2019-06-26T18:52:45.359Z,9.27
2019-06-26T18:55:16.000Z,8.90
2019-06-26T18:57:46.423Z,9.80
2019-06-26T19:00:17.804Z,9.73
2019-06-26T19:02:48.194Z,8.63
2019-06-26T19:05:18.939Z,9.57
2019-06-26T19:07:49.498Z,9.73
2019-06-26T19:10:21.022Z,9.10
2019-06-26T19:12:51.427Z,9.30
2019-06-26T19:15:22.937Z,9.03
2019-06-26T19:18:10.604Z,10.33
2019-06-26T19:20:41.116Z,9.10
2019-06-26T19:23:11.793Z,10.47
2019-06-26T19:25:42.313Z,9.13
2019-06-26T19:28:14.449Z,8.43
2019-06-26T19:30:45.373Z,9.57
2019-06-26T19:33:16.155Z,10.13
2019-06-26T19:35:46.740Z,9.80
2019-06-26T19:38:17.408Z,10.47
2019-06-26T19:40:48.076Z,10.30
2019-06-26T19:43:18.668Z,10.60
2019-06-26T19:45:49.231Z,10.80
2019-06-26T19:48:19.722Z,11.17
2019-06-26T19:50:50.223Z,10.57
2019-06-26T19:53:20.886Z,10.93
2019-06-26T19:55:51.690Z,10.93
2019-06-26T19:58:23.143Z,10.93
2019-06-26T20:00:53.918Z,10.73
2019-06-26T20:03:24.646Z,11.30
2019-06-26T20:05:55.850Z,10.30
2019-06-26T20:08:26.352Z,10.20
2019-06-26T20:10:56.839Z,10.80
2019-06-26T20:13:27.268Z,10.63
2019-06-26T20:16:00.128Z,10.53
2019-06-26T20:18:30.655Z,10.67
2019-06-26T20:21:01.296Z,10.30
2019-06-26T20:23:32.092Z,9.83
2019-06-26T20:26:03.011Z,10.27
2019-06-26T20:28:34.361Z,10.13
2019-06-26T20:31:05.349Z,9.70
2019-06-26T20:33:35.756Z,9.97
2019-06-26T20:36:06.318Z,9.37
2019-06-26T20:38:36.726Z,9.87
2019-06-26T20:41:08.178Z,14.33
2019-06-26T20:43:38.591Z,12.57
2019-06-26T20:46:08.989Z,11.70
2019-06-26T20:48:39.475Z,10.00
2019-06-26T20:51:09.890Z,9.73
2019-06-26T20:53:41.169Z,9.97
2019-06-26T20:56:11.654Z,37.33
2019-06-26T20:58:42.247Z,42.60
2019-06-26T21:04:13.401Z,10.37
2019-06-26T21:06:43.877Z,10.57
2019-06-26T21:09:14.321Z,10.43
2019-06-26T21:11:44.824Z,10.93
2019-06-26T21:14:15.310Z,10.40
2019-06-26T21:16:45.717Z,10.53
2019-06-26T21:19:20.471Z,10.70
2019-06-26T21:21:50.891Z,10.57
2019-06-26T21:24:21.329Z,10.20
2019-06-26T21:26:51.799Z,10.87
2019-06-26T21:29:23.120Z,9.97
2019-06-26T21:31:53.609Z,10.30
2019-06-26T21:34:25.970Z,10.30
2019-06-26T21:36:56.397Z,10.27
2019-06-26T21:39:26.834Z,10.47
2019-06-26T21:41:57.283Z,10.40
2019-06-26T21:44:27.716Z,10.03
2019-06-26T21:46:58.132Z,9.67
2019-06-26T21:49:29.388Z,9.97
2019-06-26T21:51:59.879Z,10.50
2019-06-26T21:54:30.276Z,10.50
2019-06-26T21:57:00.742Z,10.03
2019-06-26T21:59:31.146Z,10.10
2019-06-26T22:02:01.759Z,10.87
2019-06-26T22:04:32.969Z,11.00
2019-06-26T22:07:03.533Z,10.70
2019-06-26T22:09:34.072Z,10.87
2019-06-26T22:12:04.696Z,10.90
2019-06-26T22:14:35.120Z,10.87
2019-06-26T22:17:05.613Z,11.43
2019-06-26T22:19:36.164Z,11.17
2019-06-26T22:22:06.652Z,11.27
2019-06-26T22:24:37.072Z,11.40
2019-06-26T22:27:07.493Z,10.67
